createdAt,value
2022-09-01T00:00:02.067Z,18.90
2022-09-01T00:02:34.433Z,18.70
2022-09-01T00:05:02.330Z,18.60
2022-09-01T00:07:31.664Z,18.50
2022-09-01T00:10:00.156Z,18.40
2022-09-01T00:12:31.213Z,18.30
2022-09-01T00:14:59.488Z,18.30
2022-09-01T00:17:27.971Z,18.20
2022-09-01T00:19:56.063Z,18.40
2022-09-01T00:22:23.937Z,18.20
2022-09-01T00:24:51.735Z,18.10
2022-09-01T00:27:19.589Z,17.70
2022-09-01T00:29:48.766Z,17.90
2022-09-01T00:32:16.677Z,17.90
2022-09-01T00:34:44.467Z,17.80
2022-09-01T00:37:12.637Z,17.90
2022-09-01T00:39:40.488Z,17.70
2022-09-01T00:42:08.524Z,18.10
2022-09-01T00:44:36.617Z,17.60
2022-09-01T00:47:08.582Z,17.60
2022-09-01T00:49:40.438Z,18.10
2022-09-01T00:52:12.195Z,17.80
2022-09-01T00:54:45.681Z,17.80
2022-09-01T00:57:14.014Z,18.00
2022-09-01T00:59:49.936Z,17.70
2022-09-01T01:02:19.293Z,17.50
2022-09-01T01:04:47.135Z,17.40
2022-09-01T01:07:15.749Z,17.50
2022-09-01T01:09:45.709Z,17.70
2022-09-01T01:12:18.402Z,18.00
2022-09-01T01:14:50.105Z,18.30
2022-09-01T01:17:20.876Z,18.10
2022-09-01T01:20:09.021Z,18.30
2022-09-01T01:23:05.215Z,18.40
2022-09-01T01:25:39.589Z,18.00
2022-09-01T01:28:11.680Z,18.20
2022-09-01T01:30:42.837Z,18.30
2022-09-01T01:33:12.008Z,18.50
2022-09-01T01:35:41.888Z,18.60
2022-09-01T01:38:09.780Z,18.40
2022-09-01T01:40:39.408Z,18.10
2022-09-01T01:43:09.041Z,17.90
2022-09-01T01:45:36.970Z,17.90
2022-09-01T01:48:08.593Z,17.70
2022-09-01T01:50:37.965Z,17.70
2022-09-01T01:53:10.920Z,17.60
2022-09-01T01:55:41.713Z,17.50
2022-09-01T01:58:11.994Z,17.60
2022-09-01T02:00:44.344Z,17.90
2022-09-01T02:03:14.549Z,18.10
2022-09-01T02:05:42.427Z,18.10
2022-09-01T02:08:11.802Z,17.90
2022-09-01T02:10:44.026Z,17.80
2022-09-01T02:13:16.303Z,18.00
2022-09-01T02:15:47.485Z,18.00
2022-09-01T02:18:18.125Z,19.00
2022-09-01T02:20:47.613Z,19.50
2022-09-01T02:23:18.019Z,20.30
2022-09-01T02:26:12.007Z,20.60
2022-09-01T02:28:39.961Z,20.90
2022-09-01T02:31:08.874Z,21.30
2022-09-01T02:33:37.886Z,21.50
2022-09-01T02:36:12.449Z,21.70
2022-09-01T02:38:44.536Z,21.80
2022-09-01T02:41:19.917Z,22.00
2022-09-01T02:43:47.854Z,22.10
2022-09-01T02:46:17.219Z,22.10
2022-09-01T02:48:51.340Z,22.10
2022-09-01T02:51:22.301Z,22.20
2022-09-01T02:53:52.769Z,22.10
2022-09-01T02:56:25.239Z,21.60
2022-09-01T02:58:55.418Z,21.40
2022-09-01T03:01:29.305Z,21.20
2022-09-01T03:04:00.316Z,21.30
2022-09-01T03:06:31.351Z,21.60
2022-09-01T03:09:00.900Z,21.50
2022-09-01T03:11:31.489Z,21.60
2022-09-01T03:14:00.161Z,21.80
2022-09-01T03:16:30.476Z,21.20
2022-09-01T03:18:58.829Z,20.80
2022-09-01T03:21:27.177Z,21.40
2022-09-01T03:23:55.628Z,20.90
2022-09-01T03:26:23.758Z,21.40
2022-09-01T03:28:53.480Z,21.70
2022-09-01T03:31:22.243Z,21.80
2022-09-01T03:33:52.377Z,22.10
2022-09-01T03:36:25.241Z,22.50
2022-09-01T03:38:53.671Z,22.10
2022-09-01T03:41:24.965Z,22.50
2022-09-01T03:43:58.020Z,22.80
2022-09-01T03:46:34.240Z,23.00
2022-09-01T03:49:05.957Z,23.10
2022-09-01T03:51:34.880Z,23.20
2022-09-01T03:54:03.013Z,23.20
2022-09-01T03:56:30.881Z,23.30
2022-09-01T03:59:01.073Z,23.30
2022-09-01T04:01:32.595Z,23.40
2022-09-01T04:04:01.170Z,23.40
2022-09-01T04:06:32.201Z,23.40
2022-09-01T04:09:02.946Z,23.50
2022-09-01T04:11:33.757Z,23.50
2022-09-01T04:14:03.214Z,23.50
2022-09-01T04:16:53.540Z,23.50
2022-09-01T04:19:26.269Z,23.50
2022-09-01T04:21:57.191Z,23.60
2022-09-01T04:24:28.372Z,23.50
2022-09-01T04:26:58.598Z,23.60
2022-09-01T04:29:28.304Z,23.70
2022-09-01T04:32:01.902Z,23.60
2022-09-01T04:34:36.991Z,23.60
2022-09-01T04:37:09.028Z,23.70
2022-09-01T04:39:39.042Z,23.70
2022-09-01T04:42:09.108Z,23.70
2022-09-01T04:44:40.084Z,23.70
2022-09-01T04:47:10.790Z,23.70
2022-09-01T04:49:38.645Z,23.80
2022-09-01T04:52:06.610Z,23.80
2022-09-01T04:54:36.968Z,23.80
2022-09-01T04:57:07.182Z,23.80
2022-09-01T04:59:39.303Z,23.80
2022-09-01T05:02:09.305Z,23.80
2022-09-01T05:04:37.786Z,23.80
2022-09-01T05:07:08.316Z,23.80
2022-09-01T05:09:39.203Z,23.80
2022-09-01T05:12:27.759Z,21.80
2022-09-01T05:14:57.497Z,20.00
2022-09-01T05:17:25.945Z,19.00
2022-09-01T05:19:56.180Z,18.80
2022-09-01T05:22:24.456Z,18.80
2022-09-01T05:24:56.755Z,18.80
2022-09-01T05:27:25.710Z,18.70
2022-09-01T05:29:54.082Z,18.60
2022-09-01T05:32:25.971Z,18.70
2022-09-01T05:34:54.754Z,18.70
2022-09-01T05:37:23.507Z,18.90
2022-09-01T05:39:52.811Z,18.70
2022-09-01T05:42:21.678Z,18.20
2022-09-01T05:44:52.580Z,18.10
2022-09-01T05:47:22.007Z,18.20
2022-09-01T05:49:55.329Z,18.00
2022-09-01T05:52:25.456Z,17.40
2022-09-01T05:54:55.419Z,17.40
2022-09-01T05:57:34.297Z,17.50
2022-09-01T06:00:10.938Z,17.10
2022-09-01T06:02:42.651Z,17.10
2022-09-01T06:05:15.797Z,16.90
2022-09-01T06:07:44.241Z,16.50
2022-09-01T06:10:14.424Z,16.50
2022-09-01T06:12:43.057Z,16.90
2022-09-01T06:15:15.773Z,17.10
2022-09-01T06:17:47.071Z,17.40
2022-09-01T06:20:18.883Z,17.20
2022-09-01T06:22:47.496Z,17.20
2022-09-01T06:25:17.159Z,17.30
2022-09-01T06:27:47.986Z,17.50
2022-09-01T06:30:23.782Z,17.70
2022-09-01T06:32:57.769Z,18.10
2022-09-01T06:35:29.780Z,19.10
2022-09-01T06:37:59.914Z,20.00
2022-09-01T06:40:41.567Z,20.50
2022-09-01T06:43:12.429Z,21.00
2022-09-01T06:45:45.093Z,21.60
2022-09-01T06:48:16.516Z,22.00
2022-09-01T06:53:35.616Z,22.30
2022-09-01T06:56:08.139Z,22.00
2022-09-01T06:58:36.860Z,21.40
2022-09-01T07:01:08.184Z,20.50
2022-09-01T07:03:36.385Z,19.90
2022-09-01T07:09:21.511Z,21.00
2022-09-01T07:12:27.647Z,21.10
2022-09-01T07:17:48.942Z,21.80
2022-09-01T07:20:25.403Z,21.50
2022-09-01T07:23:05.727Z,22.10
2022-09-01T07:26:01.580Z,22.30
2022-09-01T07:28:36.640Z,22.40
2022-09-01T07:42:31.771Z,22.00
2022-09-01T07:43:09.352Z,21.80
2022-09-01T07:49:03.308Z,22.10
2022-09-01T07:51:49.991Z,22.10
2022-09-01T07:54:23.837Z,22.60
2022-09-01T07:56:54.629Z,22.60
2022-09-01T07:59:26.632Z,22.20
2022-09-01T08:02:04.421Z,22.20
2022-09-01T08:04:34.485Z,22.30
2022-09-01T08:07:03.065Z,22.50
2022-09-01T08:09:38.165Z,23.00
2022-09-01T08:12:13.544Z,23.20
2022-09-01T08:14:47.457Z,23.10
2022-09-01T08:17:18.375Z,23.20
2022-09-01T08:20:08.422Z,23.60
2022-09-01T08:22:53.191Z,23.90
2022-09-01T08:25:35.178Z,23.80
2022-09-01T08:28:05.733Z,23.70
2022-09-01T08:30:35.836Z,23.90
2022-09-01T08:33:11.429Z,24.10
2022-09-01T08:35:45.062Z,24.20
2022-09-01T08:38:13.792Z,24.10
2022-09-01T08:40:44.924Z,24.00
2022-09-01T08:43:23.155Z,24.20
2022-09-01T08:45:54.861Z,24.20
2022-09-01T08:49:23.189Z,24.30
2022-09-01T08:51:24.801Z,24.50
2022-09-01T08:54:05.821Z,24.60
2022-09-01T08:56:37.405Z,24.60
2022-09-01T08:59:09.542Z,24.50
2022-09-01T09:02:16.479Z,24.50
2022-09-01T09:04:56.149Z,24.50
2022-09-01T09:07:37.736Z,24.60
2022-09-01T09:10:13.046Z,24.80
2022-09-01T09:12:55.600Z,24.80
2022-09-01T09:15:32.473Z,24.90
2022-09-01T09:18:36.035Z,24.90
2022-09-01T09:21:09.283Z,24.70
2022-09-01T09:23:44.779Z,24.80
2022-09-01T09:26:16.713Z,24.80
2022-09-01T09:28:50.657Z,24.70
2022-09-01T09:31:31.451Z,24.80
2022-09-01T09:34:00.254Z,25.00
2022-09-01T09:36:36.054Z,24.90
2022-09-01T09:39:07.782Z,25.00
2022-09-01T09:41:36.235Z,25.10
2022-09-01T09:44:14.871Z,25.10
2022-09-01T09:46:45.792Z,25.20
2022-09-01T09:49:19.317Z,25.20
2022-09-01T09:51:58.816Z,25.20
2022-09-01T09:54:28.675Z,25.00
2022-09-01T09:57:11.550Z,25.00
2022-09-01T10:00:00.808Z,24.90
2022-09-01T10:02:34.648Z,25.10
2022-09-01T10:05:22.323Z,25.00
2022-09-01T10:07:50.801Z,25.10
2022-09-01T10:10:30.413Z,24.90
2022-09-01T10:13:00.601Z,24.80
2022-09-01T10:15:32.722Z,24.70
2022-09-01T10:18:20.730Z,24.70
2022-09-01T10:20:55.200Z,24.70
2022-09-01T10:23:27.601Z,24.50
2022-09-01T10:26:05.901Z,23.90
2022-09-01T10:28:41.115Z,24.00
2022-09-01T10:31:17.372Z,24.60
2022-09-01T10:33:47.187Z,24.80
2022-09-01T10:36:16.777Z,24.40
2022-09-01T10:38:52.786Z,23.70
2022-09-01T10:41:59.769Z,24.00
2022-09-01T10:44:33.743Z,24.20
2022-09-01T10:47:06.192Z,24.30
2022-09-01T10:50:01.708Z,24.80
2022-09-01T10:52:59.657Z,25.10
2022-09-01T10:55:33.198Z,25.00
2022-09-01T11:01:11.498Z,24.90
2022-09-01T11:04:01.425Z,25.10
2022-09-01T11:07:13.859Z,25.50
2022-09-01T11:09:44.655Z,25.00
2022-09-01T11:12:30.922Z,24.90
2022-09-01T11:15:00.513Z,24.60
2022-09-01T11:17:31.750Z,24.20
2022-09-01T11:20:08.389Z,23.90
2022-09-01T11:22:39.116Z,23.70
2022-09-01T11:25:39.717Z,23.60
2022-09-01T11:28:27.032Z,23.60
2022-09-01T11:31:00.319Z,24.10
2022-09-01T11:33:38.907Z,24.20
2022-09-01T11:36:13.403Z,24.20
2022-09-01T11:38:47.593Z,24.00
2022-09-01T11:41:24.350Z,23.90
2022-09-01T11:43:57.815Z,23.70
2022-09-01T11:46:29.714Z,23.70
2022-09-01T11:49:00.225Z,23.70
2022-09-01T11:51:28.167Z,23.80
2022-09-01T11:54:01.389Z,23.70
2022-09-01T11:56:30.617Z,23.60
2022-09-01T11:58:58.480Z,23.70
2022-09-01T12:01:34.597Z,23.80
2022-09-01T12:04:22.206Z,23.90
2022-09-01T12:06:56.030Z,23.70
2022-09-01T12:09:32.175Z,23.60
2022-09-01T12:12:01.744Z,23.60
2022-09-01T12:14:43.403Z,23.80
2022-09-01T12:17:21.987Z,23.70
2022-09-01T12:19:49.969Z,23.50
2022-09-01T12:22:21.291Z,23.40
2022-09-01T12:24:51.692Z,23.40
2022-09-01T12:27:23.151Z,23.30
2022-09-01T12:29:51.741Z,23.30
2022-09-01T12:32:20.630Z,23.40
2022-09-01T12:34:59.873Z,23.50
2022-09-01T12:37:28.736Z,23.40
2022-09-01T12:39:58.584Z,23.50
2022-09-01T12:42:38.963Z,23.50
2022-09-01T12:45:11.536Z,23.50
2022-09-01T12:47:50.225Z,23.50
2022-09-01T12:50:44.855Z,23.70
2022-09-01T12:53:23.928Z,23.90
2022-09-01T12:56:19.242Z,23.80
2022-09-01T12:58:53.745Z,24.00
2022-09-01T13:01:34.550Z,24.10
2022-09-01T13:04:23.697Z,24.10
2022-09-01T13:06:52.455Z,23.90
2022-09-01T13:09:20.471Z,23.90
2022-09-01T13:14:37.774Z,23.90
2022-09-01T13:17:05.920Z,23.90
2022-09-01T13:19:42.046Z,23.90
2022-09-01T13:22:09.966Z,23.80
2022-09-01T13:24:37.833Z,23.90
2022-09-01T13:27:22.329Z,23.90
2022-09-01T13:29:52.243Z,24.00
2022-09-01T13:32:22.336Z,23.90
2022-09-01T13:34:52.523Z,24.00
2022-09-01T13:37:21.747Z,23.90
2022-09-01T13:39:49.986Z,24.10
2022-09-01T13:42:17.933Z,24.20
2022-09-01T13:44:48.463Z,24.20
2022-09-01T13:48:14.824Z,24.20
2022-09-01T13:50:11.997Z,24.10
2022-09-01T13:52:41.930Z,24.10
2022-09-01T13:55:13.462Z,24.10
2022-09-01T13:57:41.409Z,24.20
2022-09-01T14:00:12.261Z,24.30
2022-09-01T14:02:48.940Z,24.50
2022-09-01T14:05:17.661Z,24.60
2022-09-01T14:07:45.930Z,24.60
2022-09-01T14:10:14.495Z,24.40
2022-09-01T14:12:42.542Z,24.30
2022-09-01T14:15:15.633Z,24.50
2022-09-01T14:17:47.131Z,24.40
2022-09-01T14:20:19.165Z,24.50
2022-09-01T14:22:47.367Z,24.50
2022-09-01T14:25:16.252Z,24.60
2022-09-01T14:27:44.961Z,24.40
2022-09-01T14:30:15.451Z,24.40
2022-09-01T14:32:43.352Z,24.40
2022-09-01T14:35:12.704Z,24.30
2022-09-01T14:37:40.856Z,24.50
2022-09-01T14:40:15.568Z,24.50
2022-09-01T14:42:48.930Z,24.50
2022-09-01T14:45:18.440Z,24.50
2022-09-01T14:47:46.614Z,24.60
2022-09-01T14:50:20.051Z,24.60
2022-09-01T14:52:53.733Z,24.60
2022-09-01T14:55:22.341Z,24.60
2022-09-01T14:57:50.577Z,24.60
2022-09-01T15:00:19.341Z,24.60
2022-09-01T15:02:47.868Z,24.60
2022-09-01T15:05:17.444Z,24.60
2022-09-01T15:07:45.528Z,24.80
2022-09-01T15:10:15.956Z,24.70
2022-09-01T15:12:54.308Z,24.50
2022-09-01T15:15:22.288Z,24.60
2022-09-01T15:17:50.237Z,24.70
2022-09-01T15:20:36.926Z,24.70
2022-09-01T15:23:05.773Z,24.80
2022-09-01T15:25:33.930Z,24.80
2022-09-01T15:28:01.757Z,24.60
2022-09-01T15:30:29.634Z,24.50
2022-09-01T15:32:57.472Z,24.50
2022-09-01T15:35:29.325Z,24.60
2022-09-01T15:37:58.041Z,24.60
2022-09-01T15:40:26.846Z,24.50
2022-09-01T15:42:55.674Z,24.40
2022-09-01T15:45:25.774Z,24.40
2022-09-01T15:47:53.628Z,24.40
2022-09-01T15:50:27.581Z,24.30
2022-09-01T15:52:59.518Z,24.30
2022-09-01T15:55:29.998Z,24.20
2022-09-01T15:57:59.192Z,24.20
2022-09-01T16:00:28.293Z,24.20
2022-09-01T16:02:56.427Z,24.30
2022-09-01T16:05:24.993Z,24.30
2022-09-01T16:07:53.380Z,24.10
2022-09-01T16:10:23.710Z,24.10
2022-09-01T16:12:51.754Z,24.00
2022-09-01T16:15:22.412Z,24.10
2022-09-01T16:18:06.900Z,24.10
2022-09-01T16:20:38.468Z,24.10
2022-09-01T16:23:17.170Z,24.10
2022-09-01T16:25:47.472Z,24.10
2022-09-01T16:28:24.791Z,24.20
2022-09-01T16:30:56.884Z,24.10
2022-09-01T16:33:24.756Z,24.20
2022-09-01T16:36:03.853Z,24.10
2022-09-01T16:38:42.324Z,24.00
2022-09-01T16:41:23.167Z,24.00
2022-09-01T16:44:00.127Z,24.00
2022-09-01T16:46:35.293Z,24.10
2022-09-01T16:49:18.021Z,24.10
2022-09-01T16:51:54.848Z,24.10
2022-09-01T16:54:30.029Z,24.00
2022-09-01T16:57:08.380Z,23.90
2022-09-01T16:59:44.527Z,23.80
2022-09-01T17:02:26.929Z,23.80
2022-09-01T17:04:59.193Z,23.80
2022-09-01T17:07:33.002Z,23.70
2022-09-01T17:10:05.465Z,23.70
2022-09-01T17:12:41.602Z,23.70
2022-09-01T17:15:12.648Z,23.70
2022-09-01T17:17:47.368Z,23.70
2022-09-01T17:20:16.376Z,23.70
2022-09-01T17:22:52.990Z,23.60
2022-09-01T17:25:30.533Z,23.60
2022-09-01T17:28:02.344Z,23.50
2022-09-01T17:30:32.042Z,23.40
2022-09-01T17:33:18.530Z,23.40
2022-09-01T17:36:00.635Z,23.40
2022-09-01T17:38:34.748Z,23.40
2022-09-01T17:41:13.150Z,23.30
2022-09-01T17:43:53.864Z,23.30
2022-09-01T17:46:31.074Z,23.20
2022-09-01T17:49:06.836Z,23.30
2022-09-01T17:51:42.382Z,23.30
2022-09-01T17:54:19.240Z,23.30
2022-09-01T17:56:57.336Z,23.20
2022-09-01T17:59:36.751Z,23.20
2022-09-01T18:02:22.187Z,23.10
2022-09-01T18:05:03.973Z,23.10
2022-09-01T18:07:47.792Z,23.00
2022-09-01T18:10:19.317Z,22.80
2022-09-01T18:12:53.642Z,22.80
2022-09-01T18:15:24.940Z,22.90
2022-09-01T18:18:01.058Z,22.80
2022-09-01T18:20:33.574Z,22.80
2022-09-01T18:23:06.453Z,22.70
2022-09-01T18:25:39.308Z,22.70
2022-09-01T18:28:07.597Z,22.70
2022-09-01T18:30:53.121Z,22.60
2022-09-01T18:33:27.981Z,22.60
2022-09-01T18:36:09.623Z,22.50
2022-09-01T18:38:45.340Z,22.50
2022-09-01T18:41:40.934Z,22.50
2022-09-01T18:44:26.614Z,22.40
2022-09-01T18:47:01.146Z,22.40
2022-09-01T18:49:36.366Z,22.40
2022-09-01T18:52:16.329Z,22.30
2022-09-01T18:54:54.332Z,22.30
2022-09-01T18:57:28.440Z,22.20
2022-09-01T19:00:18.236Z,22.20
2022-09-01T19:03:05.622Z,22.10
2022-09-01T19:05:46.480Z,22.10
2022-09-01T19:08:23.333Z,22.00
2022-09-01T19:10:58.057Z,21.90
2022-09-01T19:13:41.453Z,21.90
2022-09-01T19:16:21.336Z,21.80
2022-09-01T19:18:59.526Z,21.80
2022-09-01T19:21:32.239Z,21.80
2022-09-01T19:24:03.720Z,21.80
2022-09-01T19:26:43.429Z,21.80
2022-09-01T19:29:16.705Z,21.70
2022-09-01T19:31:48.189Z,21.70
2022-09-01T19:34:25.513Z,21.60
2022-09-01T19:36:55.428Z,21.60
2022-09-01T19:39:26.176Z,21.60
2022-09-01T19:42:02.093Z,21.60
2022-09-01T19:44:42.116Z,21.60
2022-09-01T19:47:15.448Z,21.50
2022-09-01T19:49:51.948Z,21.50
2022-09-01T19:52:32.220Z,21.50
2022-09-01T19:55:04.254Z,21.40
2022-09-01T19:57:36.840Z,21.40
2022-09-01T20:00:12.133Z,21.40
2022-09-01T20:02:47.266Z,21.40
2022-09-01T20:05:27.194Z,21.30
2022-09-01T20:08:02.044Z,21.30
2022-09-01T20:10:56.569Z,21.30
2022-09-01T20:13:36.304Z,21.20
2022-09-01T20:16:12.258Z,21.20
2022-09-01T20:18:45.637Z,21.20
2022-09-01T20:21:20.887Z,21.30
2022-09-01T20:23:54.968Z,21.10
2022-09-01T20:26:27.058Z,21.00
2022-09-01T20:29:00.900Z,21.00
2022-09-01T20:31:33.071Z,20.90
2022-09-01T20:34:05.544Z,20.90
2022-09-01T20:36:39.912Z,20.80
2022-09-01T20:39:29.556Z,20.80
2022-09-01T20:42:02.681Z,20.70
2022-09-01T20:44:51.304Z,20.70
2022-09-01T20:47:19.375Z,20.00
2022-09-01T20:49:47.246Z,19.60
2022-09-01T20:52:21.051Z,19.30
2022-09-01T20:54:57.226Z,19.20
2022-09-01T20:57:36.754Z,19.20
2022-09-01T21:00:08.913Z,19.40
2022-09-01T21:02:44.685Z,19.30
2022-09-01T21:05:25.218Z,19.20
2022-09-01T21:08:01.636Z,19.40
2022-09-01T21:10:36.301Z,19.50
2022-09-01T21:13:16.482Z,19.40
2022-09-01T21:15:49.360Z,19.40
2022-09-01T21:18:33.909Z,19.30
2022-09-01T21:21:07.782Z,19.20
2022-09-01T21:23:36.937Z,19.00
2022-09-01T21:26:05.521Z,19.10
2022-09-01T21:28:34.937Z,19.00
2022-09-01T21:31:03.096Z,18.90
2022-09-01T21:33:33.043Z,18.80
2022-09-01T21:36:01.708Z,18.50
2022-09-01T21:38:30.337Z,18.40
2022-09-01T21:41:01.429Z,18.50
2022-09-01T21:43:32.518Z,18.50
2022-09-01T21:46:01.205Z,18.40
2022-09-01T21:48:30.856Z,18.40
2022-09-01T21:50:58.665Z,18.40
2022-09-01T21:53:26.488Z,18.20
2022-09-01T21:55:54.320Z,18.30
2022-09-01T21:58:23.475Z,18.40
2022-09-01T22:00:51.894Z,18.20
2022-09-01T22:03:19.903Z,18.30
2022-09-01T22:05:47.867Z,18.20
2022-09-01T22:08:17.177Z,18.10
2022-09-01T22:10:49.314Z,18.10
2022-09-01T22:13:17.686Z,18.10
2022-09-01T22:15:49.859Z,18.10
2022-09-01T22:18:20.657Z,18.10
2022-09-01T22:20:48.989Z,18.20
2022-09-01T22:23:16.964Z,18.40
2022-09-01T22:25:47.591Z,18.40
2022-09-01T22:28:15.525Z,18.50
2022-09-01T22:30:49.419Z,18.50
2022-09-01T22:33:18.372Z,18.30
2022-09-01T22:35:49.724Z,18.30
2022-09-01T22:38:18.231Z,18.20
2022-09-01T22:40:47.377Z,18.10
2022-09-01T22:43:17.801Z,18.20
2022-09-01T22:45:48.129Z,18.20
2022-09-01T22:48:16.614Z,18.20
2022-09-01T22:50:46.160Z,18.20
2022-09-01T22:53:15.292Z,18.20
2022-09-01T22:55:45.257Z,18.20
2022-09-01T22:58:14.284Z,18.10
2022-09-01T23:00:45.167Z,18.10
2022-09-01T23:03:15.628Z,18.10
2022-09-01T23:05:44.201Z,18.10
2022-09-01T23:08:12.399Z,18.10
2022-09-01T23:10:40.707Z,18.20
2022-09-01T23:13:08.809Z,18.30
2022-09-01T23:15:36.886Z,18.20
2022-09-01T23:18:04.857Z,18.30
2022-09-01T23:20:34.054Z,18.40
2022-09-01T23:23:03.863Z,18.30
2022-09-01T23:25:31.799Z,18.40
2022-09-01T23:27:59.785Z,18.30
2022-09-01T23:30:27.633Z,18.10
2022-09-01T23:32:55.437Z,18.10
2022-09-01T23:35:23.825Z,17.80
2022-09-01T23:37:52.993Z,17.80
2022-09-01T23:40:21.028Z,17.80
2022-09-01T23:42:48.948Z,17.70
2022-09-01T23:45:16.961Z,17.70
2022-09-01T23:47:44.788Z,17.50
2022-09-01T23:50:12.926Z,17.50
2022-09-01T23:52:40.721Z,17.60
2022-09-01T23:55:10.898Z,17.50
2022-09-01T23:57:38.810Z,17.60
